createdAt,value
2022-12-19T00:01:58.541Z,100085.91
2022-12-19T00:04:32.349Z,100077.75
2022-12-19T00:07:02.370Z,100082.59
2022-12-19T00:09:31.452Z,100085.22
2022-12-19T00:12:00.806Z,100076.47
2022-12-19T00:14:29.819Z,100073.13
2022-12-19T00:16:57.539Z,100060.03
2022-12-19T00:19:26.207Z,100070.50
2022-12-19T00:21:54.113Z,100045.50
2022-12-19T00:24:22.044Z,100064.69
2022-12-19T00:26:51.163Z,100064.47
2022-12-19T00:29:19.222Z,100061.16
2022-12-19T00:31:47.457Z,100056.13
2022-12-19T00:34:19.661Z,100046.69
2022-12-19T00:36:47.955Z,100039.84
2022-12-19T00:39:16.211Z,100026.75
2022-12-19T00:41:46.835Z,100028.91
2022-12-19T00:44:21.552Z,100019.31
2022-12-19T00:46:52.624Z,100025.56
2022-12-19T00:49:23.595Z,100025.78
2022-12-19T00:51:51.315Z,100022.72
2022-12-19T00:54:19.680Z,100040.63
2022-12-19T00:56:48.081Z,100042.88
2022-12-19T00:59:18.081Z,100028.16
2022-12-19T01:01:56.007Z,100046.91
2022-12-19T01:04:29.402Z,100044.50
2022-12-19T01:07:02.783Z,100027.88
2022-12-19T01:09:31.268Z,100009.84
2022-12-19T01:12:16.610Z,100026.31
2022-12-19T01:14:44.233Z,100021.81
2022-12-19T01:17:13.451Z,100017.78
2022-12-19T01:19:44.321Z,100035.84
2022-12-19T01:22:12.764Z,100034.19
2022-12-19T01:24:41.264Z,100038.59
2022-12-19T01:27:09.121Z,100039.84
2022-12-19T01:29:50.782Z,100029.84
2022-12-19T01:32:21.635Z,100026.63
2022-12-19T01:34:49.447Z,100015.16
2022-12-19T01:37:20.431Z,100010.19
2022-12-19T01:39:48.215Z,100006.47
2022-12-19T01:42:23.671Z,99999.91
2022-12-19T01:45:33.896Z,100004.22
2022-12-19T01:48:08.904Z,99993.69
2022-12-19T01:50:41.434Z,99993.00
2022-12-19T01:53:31.667Z,99998.25
2022-12-19T01:55:59.277Z,100011.41
2022-12-19T01:58:26.824Z,100007.81
2022-12-19T02:00:54.571Z,100003.88
2022-12-19T02:03:27.821Z,99991.59
2022-12-19T02:05:56.441Z,100003.94
2022-12-19T02:08:24.759Z,99998.75
2022-12-19T02:10:52.441Z,100001.41
2022-12-19T02:13:21.034Z,99990.19
2022-12-19T02:15:53.300Z,99996.97
2022-12-19T02:18:29.513Z,100001.34
2022-12-19T02:21:14.391Z,99986.50
2022-12-19T02:24:14.663Z,99994.34
2022-12-19T02:27:23.090Z,99993.47
2022-12-19T02:30:05.653Z,99981.59
2022-12-19T02:32:38.265Z,99977.38
2022-12-19T02:35:11.930Z,99974.81
2022-12-19T02:37:46.593Z,99979.13
2022-12-19T02:40:17.540Z,99974.75
2022-12-19T02:42:47.503Z,99960.16
2022-12-19T02:45:28.612Z,99974.88
2022-12-19T02:47:58.793Z,99973.03
2022-12-19T02:50:37.802Z,99972.34
2022-12-19T02:53:05.548Z,99961.88
2022-12-19T02:55:34.964Z,99967.28
2022-12-19T02:58:13.580Z,99964.63
2022-12-19T03:00:51.334Z,99955.31
2022-12-19T03:03:25.396Z,99960.50
2022-12-19T03:06:00.056Z,99961.44
2022-12-19T03:08:30.941Z,99966.81
2022-12-19T03:11:00.532Z,99970.84
2022-12-19T03:13:31.487Z,99966.72
2022-12-19T03:15:59.815Z,99960.59
2022-12-19T03:18:29.115Z,99943.47
2022-12-19T03:21:04.174Z,99948.81
2022-12-19T03:23:32.246Z,99953.22
2022-12-19T03:26:03.008Z,99959.00
2022-12-19T03:28:34.332Z,99963.56
2022-12-19T03:31:02.989Z,99965.91
2022-12-19T03:33:33.353Z,99965.91
2022-12-19T03:36:04.624Z,99951.28
2022-12-19T03:38:32.620Z,99966.88
2022-12-19T03:41:00.980Z,99967.09
2022-12-19T03:43:28.922Z,99958.53
2022-12-19T03:46:03.439Z,99961.84
2022-12-19T03:48:35.977Z,99960.94
2022-12-19T03:51:10.423Z,99953.53
2022-12-19T03:53:46.480Z,99953.38
2022-12-19T03:56:18.505Z,99956.63
2022-12-19T03:58:49.326Z,99959.34
2022-12-19T04:01:17.570Z,99931.44
2022-12-19T04:03:46.779Z,99957.03
2022-12-19T04:06:14.659Z,99963.84
2022-12-19T04:08:42.823Z,99951.78
2022-12-19T04:11:16.108Z,99952.50
2022-12-19T04:13:46.178Z,99944.88
2022-12-19T04:16:19.021Z,99938.06
2022-12-19T04:18:49.530Z,99912.94
2022-12-19T04:21:21.386Z,99924.31
2022-12-19T04:23:52.015Z,99929.69
2022-12-19T04:26:20.555Z,99922.75
2022-12-19T04:28:54.162Z,99901.16
2022-12-19T04:31:22.476Z,99912.53
2022-12-19T04:33:51.439Z,99916.69
2022-12-19T04:36:19.152Z,99912.38
2022-12-19T04:38:46.872Z,99916.91
2022-12-19T04:41:14.763Z,99919.50
2022-12-19T04:43:42.393Z,99899.31
2022-12-19T04:46:10.116Z,99873.22
2022-12-19T04:48:37.899Z,99876.06
2022-12-19T04:51:07.345Z,99920.19
2022-12-19T04:53:36.447Z,99919.22
2022-12-19T04:56:05.177Z,99912.41
2022-12-19T04:58:33.202Z,99924.66
2022-12-19T05:01:02.500Z,99922.97
2022-12-19T05:03:30.215Z,99904.00
2022-12-19T05:06:04.814Z,99906.84
2022-12-19T05:08:34.165Z,99902.47
2022-12-19T05:11:02.059Z,99898.94
2022-12-19T05:13:30.465Z,99898.16
2022-12-19T05:15:58.839Z,99901.59
2022-12-19T05:18:26.690Z,99890.34
2022-12-19T05:20:54.396Z,99900.75
2022-12-19T05:23:22.630Z,99890.41
2022-12-19T05:25:51.959Z,99873.81
2022-12-19T05:28:20.152Z,99881.56
2022-12-19T05:30:52.071Z,99891.66
2022-12-19T05:33:20.236Z,99903.34
2022-12-19T05:35:49.342Z,99889.69
2022-12-19T05:38:16.947Z,99887.25
2022-12-19T05:40:44.516Z,99894.09
2022-12-19T05:43:13.466Z,99894.06
2022-12-19T05:45:41.510Z,99883.72
2022-12-19T05:48:09.582Z,99890.81
2022-12-19T05:50:37.424Z,99898.59
2022-12-19T05:53:04.971Z,99882.06
2022-12-19T05:55:32.692Z,99886.56
2022-12-19T05:58:00.279Z,99893.28
2022-12-19T06:00:29.454Z,99889.94
2022-12-19T06:02:57.240Z,99898.53
2022-12-19T06:05:25.071Z,99912.47
2022-12-19T06:07:52.765Z,99906.38
2022-12-19T06:10:20.417Z,99909.28
2022-12-19T06:12:48.014Z,99898.00
2022-12-19T06:15:16.061Z,99891.78
2022-12-19T06:17:45.205Z,99875.16
2022-12-19T06:20:13.268Z,99918.66
2022-12-19T06:22:40.842Z,99918.53
2022-12-19T06:25:09.447Z,99919.78
2022-12-19T06:27:37.165Z,99901.31
2022-12-19T06:30:05.660Z,99926.66
2022-12-19T06:32:37.719Z,99920.66
2022-12-19T06:35:08.793Z,99909.31
2022-12-19T06:37:39.325Z,99900.53
2022-12-19T06:40:28.769Z,99902.50
2022-12-19T06:42:55.429Z,99900.69
2022-12-19T06:45:25.360Z,99905.97
2022-12-19T06:47:53.086Z,99896.50
2022-12-19T06:50:22.072Z,99905.06
2022-12-19T06:52:49.702Z,99901.66
2022-12-19T06:55:17.536Z,99900.69
2022-12-19T06:57:46.450Z,99895.72
2022-12-19T07:00:15.487Z,99901.03
2022-12-19T07:02:45.318Z,99850.72
2022-12-19T07:05:13.827Z,99882.06
2022-12-19T07:07:43.029Z,99853.25
2022-12-19T07:10:11.421Z,99830.69
2022-12-19T07:12:39.221Z,99895.03
2022-12-19T07:15:08.024Z,99898.66
2022-12-19T07:17:38.963Z,99881.50
2022-12-19T07:20:10.381Z,99872.06
2022-12-19T07:22:38.461Z,99884.19
2022-12-19T07:25:09.031Z,99889.47
2022-12-19T07:27:37.967Z,99865.97
2022-12-19T07:30:08.061Z,99887.69
2022-12-19T07:32:39.569Z,99887.81
2022-12-19T07:35:08.085Z,99896.50
2022-12-19T07:37:40.559Z,99892.22
2022-12-19T07:40:13.129Z,99885.25
2022-12-19T07:42:41.305Z,99892.88
2022-12-19T07:45:09.717Z,99896.41
2022-12-19T07:47:39.523Z,99883.31
2022-12-19T07:50:10.350Z,99907.75
2022-12-19T07:52:40.866Z,99908.56
2022-12-19T07:55:10.690Z,99900.94
2022-12-19T07:57:40.756Z,99871.19
2022-12-19T08:00:10.069Z,99900.97
2022-12-19T08:02:40.963Z,99899.28
2022-12-19T08:05:09.593Z,99905.41
2022-12-19T08:07:39.353Z,99897.63
2022-12-19T08:10:08.922Z,99902.66
2022-12-19T08:12:39.662Z,99909.88
2022-12-19T08:15:11.012Z,99896.94
2022-12-19T08:17:41.434Z,99901.22
2022-12-19T08:20:12.455Z,99889.00
2022-12-19T08:22:40.851Z,99895.19
2022-12-19T08:25:12.602Z,99897.00
2022-12-19T08:27:43.325Z,99909.25
2022-12-19T08:30:14.489Z,99882.38
2022-12-19T08:32:42.294Z,99882.50
2022-12-19T08:35:11.000Z,99860.84
2022-12-19T08:37:39.872Z,99816.56
2022-12-19T08:40:09.955Z,99882.66
2022-12-19T08:42:38.952Z,99895.66
2022-12-19T08:45:09.948Z,99907.03
2022-12-19T08:47:37.830Z,99890.69
2022-12-19T08:50:06.947Z,99882.97
2022-12-19T08:52:34.852Z,99887.28
2022-12-19T08:55:03.266Z,99877.81
2022-12-19T08:57:32.023Z,99851.88
2022-12-19T09:00:01.241Z,99836.13
2022-12-19T09:02:31.881Z,99880.47
2022-12-19T09:05:59.558Z,99874.53
2022-12-19T09:07:48.819Z,99834.69
2022-12-19T09:10:16.750Z,99849.53
2022-12-19T09:12:45.415Z,99851.34
2022-12-19T09:15:14.409Z,99865.13
2022-12-19T09:17:45.354Z,99858.06
2022-12-19T09:20:21.260Z,99880.69
2022-12-19T09:22:51.157Z,99890.09
2022-12-19T09:25:19.746Z,99891.94
2022-12-19T09:28:25.721Z,99887.56
2022-12-19T09:30:36.552Z,99884.16
2022-12-19T09:33:06.684Z,99887.81
2022-12-19T09:35:38.878Z,99884.34
2022-12-19T09:38:09.754Z,99880.06
2022-12-19T09:40:50.641Z,99865.41
2022-12-19T09:43:32.360Z,99849.81
2022-12-19T09:46:08.890Z,99872.38
2022-12-19T09:48:38.077Z,99889.78
2022-12-19T09:51:12.989Z,99869.78
2022-12-19T09:53:54.465Z,99858.56
2022-12-19T09:56:24.131Z,99864.69
2022-12-19T09:58:57.428Z,99861.16
2022-12-19T10:01:29.909Z,99856.75
2022-12-19T10:04:04.627Z,99857.59
2022-12-19T10:07:12.513Z,99858.50
2022-12-19T10:09:57.777Z,99855.09
2022-12-19T10:12:40.779Z,99852.56
2022-12-19T10:15:16.775Z,99844.88
2022-12-19T10:18:01.341Z,99836.22
2022-12-19T10:20:31.688Z,99847.38
2022-12-19T10:23:14.678Z,99832.66
2022-12-19T10:25:52.714Z,99843.91
2022-12-19T10:28:40.067Z,99851.63
2022-12-19T10:31:20.937Z,99852.47
2022-12-19T10:33:54.765Z,99849.09
2022-12-19T10:36:42.315Z,99817.78
2022-12-19T10:39:20.451Z,99834.25
2022-12-19T10:41:51.796Z,99811.66
2022-12-19T10:44:19.951Z,99784.81
2022-12-19T10:46:49.137Z,99826.56
2022-12-19T10:49:18.515Z,99840.41
2022-12-19T10:51:59.848Z,99836.00
2022-12-19T10:54:39.367Z,99826.59
2022-12-19T10:57:23.689Z,99816.94
2022-12-19T10:59:59.038Z,99820.56
2022-12-19T11:02:41.076Z,99812.63
2022-12-19T11:05:24.048Z,99808.56
2022-12-19T11:08:03.689Z,99813.78
2022-12-19T11:12:25.319Z,99818.69
2022-12-19T11:18:17.094Z,99814.50
2022-12-19T11:21:55.276Z,99797.28
2022-12-19T11:29:25.414Z,99793.91
2022-12-19T11:29:32.231Z,99783.31
2022-12-19T11:29:34.226Z,99792.97
2022-12-19T11:30:46.431Z,99783.47
2022-12-19T11:33:58.207Z,99796.59
2022-12-19T11:36:32.711Z,99796.72
2022-12-19T11:39:00.719Z,99760.25
2022-12-19T11:41:33.581Z,99789.97
2022-12-19T11:44:03.926Z,99801.16
2022-12-19T11:46:38.102Z,99794.16
2022-12-19T11:49:12.304Z,99783.88
2022-12-19T11:51:45.753Z,99785.63
2022-12-19T11:54:17.676Z,99793.34
2022-12-19T11:56:47.160Z,99775.97
2022-12-19T11:59:19.466Z,99763.94
2022-12-19T12:02:03.780Z,99761.38
2022-12-19T12:04:56.489Z,99760.56
2022-12-19T12:07:51.299Z,99763.91
2022-12-19T12:17:07.468Z,99762.22
2022-12-19T12:21:52.044Z,99743.16
2022-12-19T12:31:01.414Z,99755.28
2022-12-19T12:31:05.655Z,99750.13
2022-12-19T12:31:26.705Z,99735.38
2022-12-19T12:31:51.875Z,99694.75
2022-12-19T12:31:58.104Z,99742.50
2022-12-19T12:35:09.089Z,99712.13
2022-12-19T12:35:45.388Z,99745.97
2022-12-19T12:39:40.599Z,99742.56
2022-12-19T12:42:16.817Z,99697.44
2022-12-19T12:44:46.996Z,99695.72
2022-12-19T12:47:23.061Z,99736.50
2022-12-19T12:49:54.365Z,99736.53
2022-12-19T12:52:27.435Z,99729.63
2022-12-19T12:54:55.615Z,99718.47
2022-12-19T12:57:36.416Z,99724.44
2022-12-19T13:00:34.475Z,99718.44
2022-12-19T13:03:08.270Z,99722.75
2022-12-19T13:05:40.543Z,99716.75
2022-12-19T13:08:46.251Z,99715.72
2022-12-19T13:11:36.920Z,99724.38
2022-12-19T13:14:05.303Z,99723.47
2022-12-19T13:16:53.501Z,99716.63
2022-12-19T13:19:28.463Z,99724.41
2022-12-19T13:22:18.015Z,99718.28
2022-12-19T13:24:47.247Z,99716.63
2022-12-19T13:27:40.546Z,99721.66
2022-12-19T13:30:17.174Z,99714.72
2022-12-19T13:33:10.272Z,99713.03
2022-12-19T13:36:38.085Z,99707.81
2022-12-19T13:40:02.347Z,99713.91
2022-12-19T13:41:46.468Z,99719.16
2022-12-19T13:44:19.327Z,99713.97
2022-12-19T13:46:49.874Z,99713.00
2022-12-19T13:49:31.278Z,99707.00
2022-12-19T13:52:06.147Z,99715.56
2022-12-19T13:54:45.857Z,99717.25
2022-12-19T13:57:22.099Z,99721.72
2022-12-19T14:00:00.147Z,99719.84
2022-12-19T14:02:32.395Z,99724.97
2022-12-19T14:05:02.903Z,99665.13
2022-12-19T14:07:37.440Z,99718.94
2022-12-19T14:11:38.276Z,99731.94
2022-12-19T14:13:53.229Z,99728.63
2022-12-19T14:15:59.828Z,99720.78
2022-12-19T14:18:42.732Z,99705.16
2022-12-19T14:22:07.203Z,99714.66
2022-12-19T14:24:16.291Z,99711.16
2022-12-19T14:28:21.571Z,99698.09
2022-12-19T14:30:08.608Z,99707.59
2022-12-19T14:33:44.186Z,99717.22
2022-12-19T14:36:10.603Z,99719.88
2022-12-19T14:39:21.229Z,99707.78
2022-12-19T14:41:09.383Z,99711.38
2022-12-19T14:43:59.488Z,99714.69
2022-12-19T14:51:51.760Z,99713.88
2022-12-19T14:54:21.864Z,99716.44
2022-12-19T14:54:31.212Z,99713.75
2022-12-19T14:56:00.405Z,99691.28
2022-12-19T14:58:54.063Z,99705.91
2022-12-19T15:01:23.496Z,99705.16
2022-12-19T15:04:48.111Z,99706.84
2022-12-19T15:07:07.428Z,99712.91
2022-12-19T15:11:04.924Z,99708.47
2022-12-19T15:14:46.691Z,99712.94
2022-12-19T15:15:41.125Z,99691.19
2022-12-19T15:18:22.084Z,99693.78
2022-12-19T15:20:50.002Z,99708.47
2022-12-19T15:23:21.928Z,99707.63
2022-12-19T15:26:07.020Z,99695.53
2022-12-19T15:28:41.616Z,99693.72
2022-12-19T15:31:19.291Z,99686.03
2022-12-19T15:34:23.276Z,99671.25
2022-12-19T15:36:34.586Z,99687.63
2022-12-19T15:39:03.618Z,99685.94
2022-12-19T15:41:31.791Z,99680.75
2022-12-19T15:44:04.615Z,99672.13
2022-12-19T15:46:34.448Z,99672.94
2022-12-19T15:49:02.428Z,99674.72
2022-12-19T15:51:30.187Z,99683.41
2022-12-19T15:54:22.236Z,99692.81
2022-12-19T15:56:48.260Z,99685.09
2022-12-19T15:59:24.175Z,99656.50
2022-12-19T16:01:53.760Z,99667.78
2022-12-19T16:04:24.153Z,99673.00
2022-12-19T16:06:52.333Z,99667.84
2022-12-19T16:09:22.103Z,99669.50
2022-12-19T16:11:49.984Z,99667.81
2022-12-19T16:14:17.737Z,99667.78
2022-12-19T16:16:48.769Z,99647.94
2022-12-19T16:19:24.961Z,99671.31
2022-12-19T16:21:53.122Z,99654.03
2022-12-19T16:24:21.553Z,99654.88
2022-12-19T16:26:52.664Z,99642.78
2022-12-19T16:29:22.104Z,99641.03
2022-12-19T16:31:49.968Z,99632.38
2022-12-19T16:34:19.415Z,99647.13
2022-12-19T16:36:48.883Z,99647.13
2022-12-19T16:39:16.961Z,99641.94
2022-12-19T16:41:45.368Z,99637.63
2022-12-19T16:44:19.327Z,99635.09
2022-12-19T16:46:50.805Z,99633.31
2022-12-19T16:49:22.768Z,99648.03
2022-12-19T16:51:52.934Z,99641.16
2022-12-19T16:54:21.829Z,99649.78
2022-12-19T16:56:50.419Z,99652.34
2022-12-19T16:59:20.357Z,99647.22
2022-12-19T17:01:48.652Z,99653.25
2022-12-19T17:04:18.165Z,99657.53
2022-12-19T17:06:45.910Z,99656.69
2022-12-19T17:09:16.593Z,99643.75
2022-12-19T17:11:46.953Z,99622.19
2022-12-19T17:14:17.996Z,99641.94
2022-12-19T17:16:46.066Z,99637.63
2022-12-19T17:19:21.532Z,99646.28
2022-12-19T17:21:49.560Z,99652.28
2022-12-19T17:24:19.206Z,99616.75
2022-12-19T17:26:47.839Z,99657.53
2022-12-19T17:29:16.360Z,99665.31
2022-12-19T17:31:44.494Z,99661.00
2022-12-19T17:34:17.963Z,99659.28
2022-12-19T17:36:45.899Z,99659.34
2022-12-19T17:39:21.303Z,99655.88
2022-12-19T17:41:49.799Z,99654.97
2022-12-19T17:44:17.409Z,99653.28
2022-12-19T17:46:45.360Z,99645.53
2022-12-19T17:49:18.066Z,99647.31
2022-12-19T17:51:49.980Z,99645.56
2022-12-19T17:54:17.762Z,99640.34
2022-12-19T17:56:46.796Z,99635.09
2022-12-19T17:59:14.597Z,99637.72
2022-12-19T18:01:43.210Z,99632.50
2022-12-19T18:04:13.738Z,99598.72
2022-12-19T18:06:42.032Z,99634.25
2022-12-19T18:09:18.185Z,99631.66
2022-12-19T18:11:47.572Z,99636.00
2022-12-19T18:14:16.057Z,99631.72
2022-12-19T18:16:44.107Z,99626.53
2022-12-19T18:19:18.147Z,99635.19
2022-12-19T18:21:45.843Z,99632.59
2022-12-19T18:24:14.811Z,99630.06
2022-12-19T18:26:42.457Z,99624.03
2022-12-19T18:29:11.539Z,99623.16
2022-12-19T18:31:43.443Z,99627.47
2022-12-19T18:34:19.612Z,99621.41
2022-12-19T18:36:47.207Z,99626.59
2022-12-19T18:39:20.666Z,99632.66
2022-12-19T18:41:48.788Z,99623.13
2022-12-19T18:44:18.181Z,99616.22
2022-12-19T18:46:46.394Z,99615.41
2022-12-19T18:49:15.627Z,99624.91
2022-12-19T18:51:44.522Z,99623.19
2022-12-19T18:54:14.058Z,99618.00
2022-12-19T18:56:41.732Z,99598.13
2022-12-19T18:59:09.355Z,99614.53
2022-12-19T19:01:39.228Z,99598.97
2022-12-19T19:04:07.133Z,99606.75
2022-12-19T19:06:38.105Z,99602.38
2022-12-19T19:09:07.698Z,99605.06
2022-12-19T19:11:36.430Z,99621.47
2022-12-19T19:14:04.186Z,99628.38
2022-12-19T19:16:31.824Z,99640.44
2022-12-19T19:19:01.017Z,99641.28
2022-12-19T19:21:30.619Z,99634.31
2022-12-19T19:24:01.505Z,99628.25
2022-12-19T19:26:29.044Z,99617.03
2022-12-19T19:28:56.686Z,99613.66
2022-12-19T19:31:26.603Z,99611.91
2022-12-19T19:33:56.750Z,99611.94
2022-12-19T19:36:29.535Z,99611.91
2022-12-19T19:38:57.456Z,99616.22
2022-12-19T19:41:29.507Z,99624.00
2022-12-19T19:43:57.200Z,99627.47
2022-12-19T19:46:24.870Z,99625.75
2022-12-19T19:48:52.490Z,99625.75
2022-12-19T19:51:20.312Z,99625.75
2022-12-19T19:53:49.331Z,99611.94
2022-12-19T19:56:16.969Z,99611.97
2022-12-19T19:58:44.681Z,99617.19
2022-12-19T20:01:13.850Z,99604.19
2022-12-19T20:03:44.683Z,99613.69
2022-12-19T20:06:12.863Z,99596.34
2022-12-19T20:08:41.104Z,99612.78
2022-12-19T20:11:10.719Z,99617.16
2022-12-19T20:13:39.210Z,99621.47
2022-12-19T20:16:08.745Z,99622.38
2022-12-19T20:18:37.228Z,99630.16
2022-12-19T20:21:09.295Z,99634.47
2022-12-19T20:23:40.409Z,99640.56
2022-12-19T20:26:08.294Z,99638.78
2022-12-19T20:28:41.004Z,99635.31
2022-12-19T20:31:13.430Z,99639.53
2022-12-19T20:33:41.070Z,99634.34
2022-12-19T20:36:10.606Z,99637.00
2022-12-19T20:38:38.448Z,99637.03
2022-12-19T20:41:06.404Z,99625.75
2022-12-19T20:43:34.685Z,99627.56
2022-12-19T20:46:05.234Z,99629.31
2022-12-19T20:48:33.108Z,99631.84
2022-12-19T20:51:01.576Z,99627.56
2022-12-19T20:53:30.197Z,99643.06
2022-12-19T20:55:59.815Z,99635.31
2022-12-19T20:58:28.044Z,99640.56
2022-12-19T21:00:56.039Z,99627.50
2022-12-19T21:03:28.606Z,99649.91
2022-12-19T21:05:57.537Z,99647.25
2022-12-19T21:08:26.157Z,99637.75
2022-12-19T21:10:54.160Z,99634.28
2022-12-19T21:13:22.169Z,99642.03
2022-12-19T21:15:53.177Z,99636.84
2022-12-19T21:18:20.940Z,99629.00
2022-12-19T21:20:50.861Z,99650.66
2022-12-19T21:23:18.997Z,99641.16
2022-12-19T21:25:46.606Z,99635.13
2022-12-19T21:28:14.510Z,99639.31
2022-12-19T21:30:42.236Z,99647.19
2022-12-19T21:33:10.301Z,99647.19
2022-12-19T21:35:38.890Z,99638.56
2022-12-19T21:38:07.795Z,99642.88
2022-12-19T21:40:36.784Z,99639.47
2022-12-19T21:43:11.459Z,99648.94
2022-12-19T21:45:39.844Z,99653.25
2022-12-19T21:48:07.805Z,99658.53
2022-12-19T21:50:35.413Z,99651.59
2022-12-19T21:53:03.181Z,99657.63
2022-12-19T21:55:32.169Z,99659.34
2022-12-19T21:58:00.591Z,99660.16
2022-12-19T22:00:28.396Z,99652.38
2022-12-19T22:03:13.169Z,99648.94
2022-12-19T22:05:41.983Z,99640.28
2022-12-19T22:08:10.714Z,99654.97
2022-12-19T22:10:40.531Z,99655.91
2022-12-19T22:13:08.137Z,99649.00
2022-12-19T22:15:36.428Z,99649.06
2022-12-19T22:18:04.067Z,99647.34
2022-12-19T22:20:31.647Z,99638.69
2022-12-19T22:22:59.253Z,99646.47
2022-12-19T22:25:26.842Z,99636.13
2022-12-19T22:27:57.488Z,99618.03
2022-12-19T22:30:25.057Z,99628.44
2022-12-19T22:32:53.011Z,99613.75
2022-12-19T22:35:20.643Z,99617.25
2022-12-19T22:37:48.370Z,99602.53
2022-12-19T22:40:16.311Z,99609.53
2022-12-19T22:42:43.960Z,99606.03
2022-12-19T22:45:13.177Z,99602.59
2022-12-19T22:47:42.157Z,99602.63
2022-12-19T22:50:10.422Z,99612.09
2022-12-19T22:52:38.859Z,99616.41
2022-12-19T22:55:07.385Z,99617.25
2022-12-19T22:57:35.047Z,99619.00
2022-12-19T23:00:02.699Z,99619.88
2022-12-19T23:02:31.726Z,99617.31
2022-12-19T23:04:59.483Z,99605.25
2022-12-19T23:07:27.081Z,99613.03
2022-12-19T23:09:54.808Z,99611.31
2022-12-19T23:12:22.679Z,99600.91
2022-12-19T23:14:50.269Z,99619.13
2022-12-19T23:17:18.327Z,99628.63
2022-12-19T23:19:47.314Z,99613.94
2022-12-19T23:22:15.267Z,99604.44
2022-12-19T23:24:44.686Z,99600.97
2022-12-19T23:27:12.298Z,99592.34
2022-12-19T23:29:39.939Z,99603.59
2022-12-19T23:32:07.698Z,99601.00
2022-12-19T23:34:35.452Z,99582.84
2022-12-19T23:37:12.452Z,99589.78
2022-12-19T23:39:40.446Z,99583.72
2022-12-19T23:42:08.046Z,99577.66
2022-12-19T23:44:36.009Z,99577.66
2022-12-19T23:47:04.309Z,99525.72
2022-12-19T23:49:32.546Z,99570.75
2022-12-19T23:52:00.269Z,99554.31
2022-12-19T23:54:29.256Z,99567.28
2022-12-19T23:56:56.925Z,99569.88
2022-12-19T23:59:24.583Z,99563.84
